Winchester, VA

7:53 PM EDT on August 29, 2015 (GMT -0400)
Health Professions Building | | Change Station
CLOSE
Current Station
Personal Weather Station
Location: Winchester, VA
Elevation: 873 ft
Nearby Weather Stations

Elev 873 ft 39.20 °N, 78.19 °W | Updated 2 seconds ago

Scattered Clouds
Scattered Clouds
80.4 °F
Feels Like 82 °F
N
2.0
Wind Variable Wind from ENE
Gusts 6.0 mph

Today
High -- | Low -- °F
--% Chance of Precip.
Yesterday
High -- | Low -- °F
Precip. -- in
6:38 AM 7:48 PM
Full, 100% visible
Pressure 30.10 in
Visibility 10.0 miles
Clouds Scattered Clouds 7500 ft
Heat Index 82 °F
Dew Point 64 °F
Humidity 58%
Rainfall 0.00 in
Snow Depth Not available.
UV 0 out of 12
Pollen 9.50 out of 12
Air Quality Not available.
Flu Activity Not available.
METAR KOKV 292335Z AUTO 12004KT 10SM SCT075 26/17 A3010 RMK AO2
Pressure 30.10 in
Visibility 10.0 miles
Clouds Scattered Clouds 7500 ft
Heat Index 82 °F
Dew Point 64 °F
Humidity 58%
Rainfall 0.00 in
Snow Depth Not available.
UV 0 out of 12
Pollen 9.50 out of 12
Air Quality Not available.
Flu Activity Not available.
METAR KOKV 292335Z AUTO 12004KT 10SM SCT075 26/17 A3010 RMK AO2

10-Day Weather Forecast

×

Almanac

Astronomy

Aug. 29, 2015 Rise Set
Actual Time
Civil Twilight
Nautical Twilight
Astronomical Twilight
Moon
Length of Visible Light
Length of Day
Tomorrow will be .
, % of the Moon is Illuminated

Today's Extremes

State Highs State Lows

Community

WunderPhotos

Upload Photos

1,850,784 photos uploaded!

WunderBlogs® & News

Nearby

Air Quality

  Air Quality AQ Index Pollutant
Not available.

Snow Depth

Station Depth Elevation

Earthquake Activity

City Distance Mag. Time & Date
Minimum magnitude displayed is 2.5.

Coastal Water Temperatures

Place Temperature

Stations

Nearby Weather Stations

Station Location Temp. Windchill Dew Point Humidity Wind Precip. Elev Updated Type